• Join FlightAware (Why Join?)
  • Login
  • US Flag 
09:23AM EDT


 

Airport Tracker/Info


-or-


 

Live Flight TrackerFlight Track Log ✈ SWA3764 ✈ 01-May-2013 ✈ KMDW - KBNA

Flight Track Log - Related Links

Times and Time Zones

All times are in EDT time to prevent confusion due to time zone crossing. See the SWA3764 flight status page for this flight to view local times or setup timezone preferences in your user account.

Time Position Orientation Groundspeed Altitude Reporting Facility
EDT Latitude Longitude Course Direction KTS MPH feet Rate Location/Type
07:19AM 41.7667 -87.7667 201° Southwest 130 150 2,300  Level Chicago TRACON
07:21AM 41.6842 -87.8100 201° Southwest 185 213 4,400 1,680 Climbing Chicago Center
07:22AM 41.6147 -87.8272 191° South 221 254 7,100 2,820 Climbing Chicago Center
07:23AM 41.5422 -87.8447 190° South 257 296 10,200 2,820 Climbing Chicago Center
07:24AM 41.4653 -87.8575 187° South 280 322 12,900 1,740 Climbing Chicago Center
07:25AM 41.3786 -87.8525 178° South 305 351 13,800 900 Climbing Chicago Center
07:26AM 41.2900 -87.8375 173° South 315 362 14,800 1,680 Climbing Chicago Center
07:27AM 41.1972 -87.8222 173° South 328 377 17,300 2,280 Climbing Chicago Center
07:28AM 41.0986 -87.8039 172° South 351 404 19,500 1,800 Climbing Chicago Center
07:29AM 40.9972 -87.7636 163° South 377 434 21,000 1,800 Climbing Chicago Center
07:30AM 40.8936 -87.7303 166° South 382 440 23,200 2,760 Climbing Chicago Center
07:31AM 40.7589 -87.7142 175° South 404 465 26,700 3,180 Climbing Chicago Center
07:32AM 40.6442 -87.6981 174° South 414 476 29,800 2,760 Climbing Chicago Center
07:33AM 40.5317 -87.6825 174° South 410 472 32,400 1,560 Climbing Chicago Center
07:34AM 40.4178 -87.6653 173° South 411 473 33,000 300 Climbing Chicago Center
07:35AM 40.2933 -87.6494 174° South 414 476 33,000  Level Indianapolis Center
07:36AM 40.1789 -87.6344 174° South 413 475 33,000  Level Indianapolis Center
07:37AM 40.0658 -87.6172 173° South 408 470 33,000  Level Indianapolis Center
07:38AM 39.9506 -87.6025 174° South 413 475 33,000  Level Indianapolis Center
07:39AM 39.8375 -87.5858 174° South 410 472 33,000  Level Indianapolis Center
07:40AM 39.7239 -87.5711 174° South 409 471 33,000  Level Indianapolis Center
07:41AM 39.6103 -87.5553 174° South 410 472 33,000  Level Indianapolis Center
07:42AM 39.4972 -87.5400 174° South 408 470 33,000  Level Indianapolis Center
07:43AM 39.3828 -87.5244 174° South 410 472 33,000  Level Indianapolis Center
07:44AM 39.2489 -87.5064 174° South 413 475 33,000  Level Indianapolis Center
07:45AM 39.1347 -87.4897 174° South 411 473 33,000  Level Indianapolis Center
07:46AM 39.0194 -87.4753 174° South 414 476 33,000  Level Indianapolis Center
07:47AM 38.9044 -87.4594 174° South 413 475 33,000  Level Indianapolis Center
07:49AM 38.7883 -87.4439 174° South 418 481 33,000  Level Indianapolis Center
07:50AM 38.6728 -87.4292 174° South 417 480 33,000  Level Indianapolis Center
07:51AM 38.5575 -87.4136 174° South 417 480 33,000  Level Indianapolis Center
07:52AM 38.4436 -87.3981 174° South 414 476 33,000  Level Indianapolis Center
07:53AM 38.3078 -87.3806 174° South 412 474 33,000  Level Indianapolis Center
07:54AM 38.1939 -87.3667 175° South 415 478 33,000  Level Indianapolis Center
07:55AM 38.0806 -87.3511 174° South 413 475 33,000  Level Indianapolis Center
07:56AM 37.9669 -87.3361 174° South 412 474 33,000  Level Indianapolis Center
07:57AM 37.8550 -87.3206 174° South 406 467 33,000 -1,260 Level Indianapolis Center
07:58AM 37.7367 -87.3056 174° South 404 465 30,500 -2,400 Descending Indianapolis Center
07:59AM 37.6247 -87.2919 174° South 401 461 28,200 -2,220 Descending Indianapolis Center
08:00AM 37.5172 -87.2767 174° South 389 448 26,000 -2,280 Descending Indianapolis Center
08:00AM 37.4811 -87.2731 175° South 391 450 25,300 -2,400 Descending Memphis Center
08:01AM 37.4100 -87.2681 177° South 368 423 23,800 -2,100 Descending Memphis Center
08:01AM 37.3786 -87.2589 167° South 386 444 23,200 -840 Descending Memphis Center
08:02AM 37.3136 -87.2483 173° South 359 413 23,000 -240 Descending Memphis Center
08:02AM 37.2800 -87.2342 161° South 373 429 23,000  Level Memphis Center
08:03AM 37.2108 -87.2158 168° South 368 423 23,000 -540 Level Memphis Center
08:03AM 37.1814 -87.2042 162° South 373 429 22,500 -1,800 Descending Memphis Center
08:04AM 37.1103 -87.1886 170° South 360 414 21,200 -1,920 Descending Memphis Center
08:04AM 37.0847 -87.1767 160° South 373 429 20,600 -1,860 Descending Memphis Center
08:05AM 36.9925 -87.1492 167° South 373 429 18,800 -2,100 Descending Memphis Center
08:06AM 36.9086 -87.1292 169° South 368 423 17,000 -2,040 Descending Memphis Center
08:06AM 36.8939 -87.1219 159° South 373 429 16,800 -1,920 Descending Memphis Center
08:07AM 36.8014 -87.0894 164° South 358 412 14,600 -2,100 Descending Memphis Center
08:08AM 36.7186 -87.0386 154° Southeast 336 387 12,700 -1,680 Descending Memphis Center
08:09AM 36.6464 -86.9847 149° Southeast 315 362 11,300 -1,440 Descending Memphis Center
08:10AM 36.5844 -86.9278 144° Southeast 292 336 9,900 -1,620 Descending Memphis Center
08:11AM 36.5178 -86.8633 142° Southeast 279 321 8,100 -1,800 Descending Memphis Center
08:12AM 36.4581 -86.8067 143° Southeast 279 321 6,300 -1,620 Descending Memphis Center
08:13AM 36.4000 -86.7500 142° Southeast 279 321 4,900 -900 Descending Memphis Center
08:14AM 36.3464 -86.6983 142° Southeast 263 303 4,500 -600 Descending Memphis Center
08:15AM 36.3014 -86.6592 145° Southeast 217 250 3,800 -720 Descending Memphis Center
08:16AM 36.2669 -86.6244 141° Southeast 191 220 3,100 -660 Descending Memphis Center
08:17AM 36.2294 -86.6186 173° South 154 177 2,500 -660 Descending Memphis Center
08:18AM 36.1944 -86.6356 201° Southwest 141 162 1,800 -660 Descending Memphis Center
08:19AM 36.1636 -86.6472 197° South 141 162 1,200 -600 Descending Memphis Center
08:20AM 36.1306 -86.6617 199° South 136 157 600 3,900 Descending Memphis Center
08:21AM 36.0914 -86.6764 197° South 136 157 9,000 8,400 Climbing Memphis Center
08:23AM 36.1167 -86.6667 90° East  Level FlightAware Approximate
08:30AM 36.1245 -86.6782 90° East  Level Estimated
08:31AM 36.1245 -86.6782 90° East  Level Estimated
08:32AM 36.1245 -86.6782 90° East  Level Estimated
08:33AM 36.1245 -86.6782 90° East  Level Estimated
08:34AM 36.1245 -86.6782 90° East  Level Estimated
08:35AM 36.1245 -86.6782 90° East  Level Estimated
08:36AM 36.1245 -86.6782 90° East  Level Estimated
08:37AM 36.1245 -86.6782 90° East  Level Estimated
08:38AM 36.1245 -86.6782 90° East  Level Estimated
08:39AM 36.1245 -86.6782 90° East  Level Estimated
08:40AM 36.1245 -86.6782 90° East  Level Estimated
08:41AM 36.1245 -86.6782 90° East  Level Estimated